createdAt,value
2023-01-06T00:01:50.406Z,11.64
2023-01-06T00:04:18.702Z,11.61
2023-01-06T00:06:46.751Z,11.52
2023-01-06T00:09:15.023Z,11.72
2023-01-06T00:11:43.099Z,11.70
2023-01-06T00:14:12.493Z,11.36
2023-01-06T00:16:40.360Z,11.55
2023-01-06T00:19:11.455Z,11.86
2023-01-06T00:21:39.371Z,11.55
2023-01-06T00:24:08.526Z,11.61
2023-01-06T00:26:36.415Z,11.47
2023-01-06T00:29:04.953Z,11.65
2023-01-06T00:31:32.913Z,11.63
2023-01-06T00:34:03.130Z,11.52
2023-01-06T00:36:31.433Z,11.31
2023-01-06T00:39:00.893Z,11.27
2023-01-06T00:41:47.213Z,11.41
2023-01-06T00:44:15.598Z,11.37
2023-01-06T00:46:43.537Z,11.35
2023-01-06T00:49:11.683Z,11.55
2023-01-06T00:51:40.944Z,11.70
2023-01-06T00:54:11.541Z,11.53
2023-01-06T00:56:45.821Z,11.27
2023-01-06T00:59:16.815Z,11.22
2023-01-06T01:01:47.542Z,11.47
2023-01-06T01:04:16.334Z,11.60
2023-01-06T01:06:46.336Z,11.33
2023-01-06T01:09:18.943Z,11.62
2023-01-06T01:12:06.845Z,11.37
2023-01-06T01:14:36.084Z,11.41
2023-01-06T01:17:04.427Z,11.73
2023-01-06T01:19:32.938Z,11.63
2023-01-06T01:22:02.046Z,11.51
2023-01-06T01:24:31.304Z,11.65
2023-01-06T01:26:59.305Z,11.73
2023-01-06T01:29:27.912Z,11.62
2023-01-06T01:31:56.162Z,11.29
2023-01-06T01:34:24.592Z,11.34
2023-01-06T01:36:54.908Z,11.56
2023-01-06T01:39:26.423Z,11.48
2023-01-06T01:41:55.563Z,11.36
2023-01-06T01:44:58.720Z,11.60
2023-01-06T01:47:48.002Z,11.51
2023-01-06T01:50:19.301Z,11.35
2023-01-06T01:52:50.312Z,11.62
2023-01-06T01:55:20.079Z,11.45
2023-01-06T01:58:11.942Z,11.84
2023-01-06T02:00:43.910Z,11.96
2023-01-06T02:03:14.349Z,11.91
2023-01-06T02:05:48.807Z,11.78
2023-01-06T02:08:42.002Z,11.95
2023-01-06T02:11:11.206Z,11.62
2023-01-06T02:13:41.858Z,11.72
2023-01-06T02:16:13.197Z,11.37
2023-01-06T02:18:55.709Z,11.46
2023-01-06T02:21:51.461Z,11.55
2023-01-06T02:24:40.872Z,11.75
2023-01-06T02:27:49.044Z,11.71
2023-01-06T02:30:46.294Z,11.56
2023-01-06T02:33:45.651Z,11.44
2023-01-06T02:36:50.754Z,11.56
2023-01-06T02:39:50.653Z,11.55
2023-01-06T02:43:06.115Z,11.58
2023-01-06T02:46:12.609Z,11.59
2023-01-06T02:49:04.133Z,11.55
2023-01-06T02:51:48.671Z,11.48
2023-01-06T02:54:40.044Z,11.56
2023-01-06T02:57:41.893Z,11.55
2023-01-06T03:00:34.886Z,11.75
2023-01-06T03:03:13.662Z,12.00
2023-01-06T03:05:45.662Z,11.82
2023-01-06T03:08:29.220Z,11.74
2023-01-06T03:11:00.221Z,11.63
2023-01-06T03:13:42.581Z,11.47
2023-01-06T03:16:12.132Z,11.55
2023-01-06T03:18:44.562Z,11.55
2023-01-06T03:21:16.552Z,11.64
2023-01-06T03:23:47.232Z,11.65
2023-01-06T03:26:16.048Z,11.62
2023-01-06T03:28:47.252Z,11.55
2023-01-06T03:31:46.313Z,11.52
2023-01-06T03:34:24.891Z,11.74
2023-01-06T03:37:20.112Z,11.58
2023-01-06T03:40:10.943Z,11.64
2023-01-06T03:43:16.522Z,11.79
2023-01-06T03:46:05.849Z,11.89
2023-01-06T03:48:56.732Z,11.62
2023-01-06T03:51:45.068Z,11.51
2023-01-06T03:54:23.478Z,11.45
2023-01-06T03:57:14.950Z,11.58
2023-01-06T03:59:50.515Z,11.63
2023-01-06T04:02:20.617Z,11.63
2023-01-06T04:05:15.590Z,11.79
2023-01-06T04:07:46.838Z,11.90
2023-01-06T04:10:19.625Z,11.50
2023-01-06T04:12:51.283Z,11.47
2023-01-06T04:15:25.746Z,11.59
2023-01-06T04:17:56.899Z,11.47
2023-01-06T04:20:28.538Z,11.42
2023-01-06T04:23:08.133Z,11.87
2023-01-06T04:25:39.702Z,11.65
2023-01-06T04:28:15.142Z,11.54
2023-01-06T04:30:44.442Z,11.67
2023-01-06T04:33:13.125Z,11.55
2023-01-06T04:35:44.064Z,11.46
2023-01-06T04:38:12.755Z,11.48
2023-01-06T04:40:42.830Z,11.18
2023-01-06T04:43:16.379Z,11.43
2023-01-06T04:45:45.226Z,11.59
2023-01-06T04:48:14.597Z,11.49
2023-01-06T04:50:42.647Z,11.56
2023-01-06T04:53:13.268Z,11.44
2023-01-06T04:55:42.490Z,11.70
2023-01-06T04:58:12.094Z,11.63
2023-01-06T05:00:40.190Z,11.38
2023-01-06T05:03:08.464Z,11.36
2023-01-06T05:05:36.324Z,11.43
2023-01-06T05:08:05.265Z,11.47
2023-01-06T05:10:33.147Z,11.50
2023-01-06T05:13:01.363Z,11.55
2023-01-06T05:15:29.191Z,11.67
2023-01-06T05:17:57.401Z,11.41
2023-01-06T05:20:25.301Z,11.34
2023-01-06T05:22:53.694Z,11.52
2023-01-06T05:25:21.642Z,11.45
2023-01-06T05:27:49.893Z,11.36
2023-01-06T05:30:17.795Z,11.57
2023-01-06T05:32:46.075Z,11.09
2023-01-06T05:35:14.243Z,11.44
2023-01-06T05:37:42.820Z,11.38
2023-01-06T05:40:11.769Z,11.44
2023-01-06T05:42:41.167Z,11.34
2023-01-06T05:45:10.059Z,11.36
2023-01-06T05:47:38.458Z,11.33
2023-01-06T05:50:06.994Z,11.25
2023-01-06T05:52:35.373Z,11.08
2023-01-06T05:55:03.578Z,11.11
2023-01-06T05:57:37.092Z,11.33
2023-01-06T06:00:06.276Z,11.27
2023-01-06T06:02:40.349Z,10.99
2023-01-06T06:05:08.624Z,11.27
2023-01-06T06:07:37.042Z,11.22
2023-01-06T06:10:05.685Z,11.09
2023-01-06T06:12:34.019Z,11.11
2023-01-06T06:15:01.966Z,11.31
2023-01-06T06:17:31.603Z,11.25
2023-01-06T06:19:59.511Z,11.48
2023-01-06T06:22:27.762Z,11.09
2023-01-06T06:24:55.789Z,11.06
2023-01-06T06:27:24.089Z,11.07
2023-01-06T06:29:52.032Z,11.26
2023-01-06T06:32:20.323Z,11.16
2023-01-06T06:34:48.909Z,11.43
2023-01-06T06:37:17.268Z,11.28
2023-01-06T06:39:45.166Z,11.06
2023-01-06T06:42:13.566Z,11.13
2023-01-06T06:44:41.479Z,11.14
2023-01-06T06:47:09.783Z,11.13
2023-01-06T06:49:37.679Z,11.01
2023-01-06T06:52:05.995Z,11.09
2023-01-06T06:54:33.981Z,11.21
2023-01-06T06:57:02.348Z,11.42
2023-01-06T06:59:30.281Z,11.54
2023-01-06T07:01:58.645Z,11.36
2023-01-06T07:04:26.779Z,11.34
2023-01-06T07:06:56.919Z,11.23
2023-01-06T07:09:24.893Z,11.32
2023-01-06T07:11:53.222Z,11.23
2023-01-06T07:14:21.177Z,11.36
2023-01-06T07:16:49.418Z,11.24
2023-01-06T07:19:17.404Z,11.45
2023-01-06T07:21:45.899Z,11.39
2023-01-06T07:24:13.848Z,11.48
2023-01-06T07:26:42.207Z,11.37
2023-01-06T07:29:10.142Z,11.46
2023-01-06T07:31:38.475Z,11.76
2023-01-06T07:34:06.643Z,11.71
2023-01-06T07:36:34.942Z,11.63
2023-01-06T07:39:02.871Z,11.75
2023-01-06T07:41:32.911Z,11.75
2023-01-06T07:44:01.934Z,11.84
2023-01-06T07:46:30.223Z,12.11
2023-01-06T07:48:58.241Z,11.98
2023-01-06T07:51:26.497Z,12.10
2023-01-06T07:53:54.559Z,12.08
2023-01-06T07:56:25.044Z,12.12
2023-01-06T07:58:56.980Z,12.23
2023-01-06T08:01:26.436Z,11.94
2023-01-06T08:03:54.469Z,12.07
2023-01-06T08:06:23.865Z,12.05
2023-01-06T08:08:51.977Z,12.10
2023-01-06T08:11:20.339Z,11.95
2023-01-06T08:13:48.300Z,11.89
2023-01-06T08:16:16.892Z,11.93
2023-01-06T08:18:44.928Z,11.86
2023-01-06T08:21:13.306Z,11.84
2023-01-06T08:23:42.139Z,12.17
2023-01-06T08:26:16.465Z,11.94
2023-01-06T08:28:45.967Z,12.37
2023-01-06T08:31:19.415Z,12.20
2023-01-06T08:33:48.320Z,12.34
2023-01-06T08:36:19.811Z,12.09
2023-01-06T08:38:48.183Z,12.18
2023-01-06T08:41:17.699Z,12.17
2023-01-06T08:43:46.765Z,12.21
2023-01-06T08:46:19.263Z,12.34
2023-01-06T08:48:49.124Z,12.23
2023-01-06T08:51:24.558Z,12.47
2023-01-06T08:53:53.474Z,12.41
2023-01-06T08:56:28.286Z,12.38
2023-01-06T08:59:02.268Z,12.42
2023-01-06T09:01:33.634Z,12.42
2023-01-06T09:04:04.596Z,12.33
2023-01-06T09:06:33.742Z,12.24
2023-01-06T09:09:03.592Z,12.24
2023-01-06T09:11:32.217Z,12.48
2023-01-06T09:14:00.428Z,12.28
2023-01-06T09:16:28.921Z,12.19
2023-01-06T09:18:56.968Z,12.44
2023-01-06T09:21:26.400Z,12.27
2023-01-06T09:23:54.360Z,12.50
2023-01-06T09:26:22.720Z,12.36
2023-01-06T09:28:50.773Z,12.46
2023-01-06T09:31:19.246Z,12.60
2023-01-06T09:33:47.768Z,12.52
2023-01-06T09:36:17.403Z,12.64
2023-01-06T09:38:45.379Z,12.72
2023-01-06T09:41:42.435Z,12.88
2023-01-06T09:44:30.819Z,12.61
2023-01-06T09:47:00.748Z,12.65
2023-01-06T09:49:41.048Z,12.82
2023-01-06T09:52:32.600Z,12.77
2023-01-06T09:55:06.197Z,12.91
2023-01-06T09:57:41.488Z,12.75
2023-01-06T10:00:41.686Z,12.84
2023-01-06T10:03:18.814Z,12.94
2023-01-06T10:06:23.621Z,13.13
2023-01-06T10:09:18.486Z,12.99
2023-01-06T10:11:58.728Z,12.81
2023-01-06T10:15:04.128Z,13.13
2023-01-06T10:17:44.540Z,13.23
2023-01-06T10:20:28.088Z,13.19
2023-01-06T10:23:13.499Z,13.14
2023-01-06T10:25:47.209Z,13.22
2023-01-06T10:28:36.469Z,13.30
2023-01-06T10:31:16.498Z,13.51
2023-01-06T10:33:50.361Z,13.49
2023-01-06T10:36:23.266Z,13.70
2023-01-06T10:38:53.771Z,13.55
2023-01-06T10:42:18.441Z,13.55
2023-01-06T10:44:46.788Z,13.11
2023-01-06T10:47:24.819Z,13.09
2023-01-06T10:49:52.829Z,13.22
2023-01-06T10:52:23.035Z,13.51
2023-01-06T10:54:54.719Z,13.64
2023-01-06T10:57:43.488Z,13.72
2023-01-06T11:00:24.040Z,13.77
2023-01-06T11:06:05.410Z,13.74
2023-01-06T11:08:37.419Z,13.77
2023-01-06T11:11:26.853Z,13.77
2023-01-06T11:14:00.044Z,13.75
2023-01-06T11:16:30.753Z,13.94
2023-01-06T11:19:03.370Z,13.82
2023-01-06T11:21:47.451Z,13.88
2023-01-06T11:24:25.717Z,14.02
2023-01-06T11:27:15.422Z,13.95
2023-01-06T11:29:43.743Z,13.97
2023-01-06T11:32:27.891Z,13.99
2023-01-06T11:34:59.766Z,14.06
2023-01-06T11:37:42.693Z,13.98
2023-01-06T11:40:30.306Z,14.05
2023-01-06T11:43:01.650Z,13.70
2023-01-06T11:45:36.613Z,13.71
2023-01-06T11:48:32.397Z,13.98
2023-01-06T11:51:04.654Z,13.72
2023-01-06T11:53:34.601Z,13.75
2023-01-06T11:56:15.648Z,13.59
2023-01-06T11:58:58.845Z,13.68
2023-01-06T12:01:27.188Z,13.61
2023-01-06T12:04:21.766Z,13.76
2023-01-06T12:07:00.486Z,13.90
2023-01-06T12:09:40.188Z,13.91
2023-01-06T12:12:19.988Z,13.91
2023-01-06T12:14:48.238Z,13.97
2023-01-06T12:17:37.837Z,13.85
2023-01-06T12:20:26.623Z,13.69
2023-01-06T12:23:08.151Z,13.91
2023-01-06T12:25:43.718Z,13.85
2023-01-06T12:28:18.062Z,14.08
2023-01-06T12:31:22.278Z,13.99
2023-01-06T12:34:16.610Z,13.90
2023-01-06T12:36:58.517Z,13.95
2023-01-06T12:39:42.341Z,14.08
2023-01-06T12:42:34.108Z,14.07
2023-01-06T12:45:14.362Z,13.69
2023-01-06T12:47:46.601Z,13.39
2023-01-06T12:50:40.391Z,13.53
2023-01-06T12:53:20.951Z,13.12
2023-01-06T12:56:22.368Z,13.11
2023-01-06T12:59:28.306Z,13.32
2023-01-06T13:02:15.507Z,13.03
2023-01-06T13:04:46.408Z,13.13
2023-01-06T13:07:19.831Z,13.02
2023-01-06T13:09:56.946Z,13.28
2023-01-06T13:12:43.607Z,13.18
2023-01-06T13:15:20.278Z,13.46
2023-01-06T13:17:57.367Z,12.85
2023-01-06T13:21:03.596Z,13.10
2023-01-06T13:23:50.517Z,13.18
2023-01-06T13:26:24.277Z,13.61
2023-01-06T13:29:19.917Z,13.57
2023-01-06T13:32:17.118Z,13.73
2023-01-06T13:34:58.398Z,13.22
2023-01-06T13:37:29.185Z,13.28
2023-01-06T13:40:01.957Z,13.10
2023-01-06T13:42:42.276Z,12.77
2023-01-06T13:45:19.350Z,12.58
2023-01-06T13:47:49.766Z,12.42
2023-01-06T13:50:21.108Z,12.68
2023-01-06T13:52:49.408Z,12.94
2023-01-06T13:55:39.815Z,12.87
2023-01-06T13:58:26.009Z,13.18
2023-01-06T14:01:32.932Z,12.94
2023-01-06T14:04:36.825Z,12.81
2023-01-06T14:07:05.739Z,13.13
2023-01-06T14:09:39.831Z,13.02
2023-01-06T14:12:17.886Z,12.74
2023-01-06T14:14:55.805Z,12.46
2023-01-06T14:17:42.242Z,12.84
2023-01-06T14:20:35.561Z,12.97
2023-01-06T14:23:07.505Z,13.06
2023-01-06T14:25:41.516Z,13.21
2023-01-06T14:28:24.655Z,12.85
2023-01-06T14:31:27.762Z,12.71
2023-01-06T14:34:01.929Z,13.04
2023-01-06T14:36:33.564Z,13.20
2023-01-06T14:39:05.131Z,13.21
2023-01-06T14:41:56.228Z,12.97
2023-01-06T14:44:34.211Z,13.17
2023-01-06T14:47:07.238Z,12.92
2023-01-06T14:49:58.412Z,12.65
2023-01-06T14:52:35.178Z,12.54
2023-01-06T14:55:10.410Z,12.96
2023-01-06T14:57:40.348Z,12.94
2023-01-06T15:00:25.302Z,13.20
2023-01-06T15:02:56.429Z,13.30
2023-01-06T15:05:31.336Z,12.79
2023-01-06T15:08:00.638Z,12.67
2023-01-06T15:10:41.109Z,13.04
2023-01-06T15:13:22.689Z,12.35
2023-01-06T15:16:03.923Z,12.53
2023-01-06T15:18:34.239Z,12.69
2023-01-06T15:21:04.185Z,12.79
2023-01-06T15:23:32.126Z,13.11
2023-01-06T15:26:00.649Z,12.58
2023-01-06T15:28:31.676Z,12.39
2023-01-06T15:31:01.820Z,12.34
2023-01-06T15:33:41.938Z,12.35
2023-01-06T15:36:20.168Z,12.60
2023-01-06T15:38:51.478Z,12.71
2023-01-06T15:41:41.182Z,12.66
2023-01-06T15:44:27.505Z,12.61
2023-01-06T15:47:13.164Z,12.28
2023-01-06T15:49:43.859Z,12.39
2023-01-06T15:52:30.072Z,11.91
2023-01-06T15:55:02.127Z,12.10
2023-01-06T15:57:40.306Z,11.93
2023-01-06T16:00:23.390Z,12.21
2023-01-06T16:02:51.967Z,12.15
2023-01-06T16:05:39.847Z,11.98
2023-01-06T16:08:24.616Z,11.96
2023-01-06T16:11:17.557Z,12.08
2023-01-06T16:13:49.278Z,12.28
2023-01-06T16:16:17.249Z,12.42
2023-01-06T16:18:46.308Z,12.26
2023-01-06T16:21:20.140Z,12.40
2023-01-06T16:23:53.754Z,12.04
2023-01-06T16:26:25.581Z,11.73
2023-01-06T16:28:57.698Z,11.66
2023-01-06T16:31:37.318Z,11.84
2023-01-06T16:34:17.713Z,12.13
2023-01-06T16:36:45.804Z,12.52
2023-01-06T16:39:15.495Z,12.46
2023-01-06T16:42:00.403Z,12.60
2023-01-06T16:44:32.113Z,12.63
2023-01-06T16:47:02.442Z,12.78
2023-01-06T16:49:30.977Z,12.61
2023-01-06T16:51:59.789Z,12.66
2023-01-06T16:54:28.201Z,12.47
2023-01-06T16:56:56.127Z,12.50
2023-01-06T16:59:26.342Z,12.58
2023-01-06T17:01:54.305Z,12.73
2023-01-06T17:04:22.651Z,12.42
2023-01-06T17:06:50.676Z,12.15
2023-01-06T17:09:21.302Z,12.12
2023-01-06T17:11:51.497Z,12.46
2023-01-06T17:14:22.126Z,12.50
2023-01-06T17:16:53.633Z,12.45
2023-01-06T17:19:29.708Z,12.68
2023-01-06T17:22:13.203Z,12.81
2023-01-06T17:24:42.584Z,12.85
2023-01-06T17:27:16.763Z,12.78
2023-01-06T17:29:44.984Z,12.67
2023-01-06T17:32:28.404Z,12.79
2023-01-06T17:35:28.312Z,12.68
2023-01-06T17:37:59.499Z,12.45
2023-01-06T17:40:34.239Z,12.46
2023-01-06T17:43:07.827Z,12.22
2023-01-06T17:45:36.454Z,11.91
2023-01-06T17:48:11.395Z,12.29
2023-01-06T17:50:52.536Z,11.91
2023-01-06T17:53:52.697Z,12.33
2023-01-06T17:56:22.834Z,12.52
2023-01-06T17:58:51.195Z,12.52
2023-01-06T18:01:25.468Z,12.50
2023-01-06T18:03:56.279Z,12.68
2023-01-06T18:06:37.666Z,12.75
2023-01-06T18:09:05.964Z,12.84
2023-01-06T18:11:44.002Z,12.74
2023-01-06T18:14:21.349Z,12.64
2023-01-06T18:16:52.657Z,12.55
2023-01-06T18:19:32.650Z,12.63
2023-01-06T18:22:03.528Z,12.34
2023-01-06T18:24:37.013Z,12.05
2023-01-06T18:27:28.567Z,12.46
2023-01-06T18:30:02.085Z,12.49
2023-01-06T18:32:32.425Z,12.50
2023-01-06T18:35:04.191Z,12.57
2023-01-06T18:37:35.755Z,12.53
2023-01-06T18:40:13.388Z,12.46
2023-01-06T18:42:44.786Z,12.56
2023-01-06T18:45:25.249Z,12.57
2023-01-06T18:48:06.255Z,12.66
2023-01-06T18:50:41.885Z,12.62
2023-01-06T18:53:15.867Z,12.43
2023-01-06T18:55:55.321Z,12.40
2023-01-06T18:58:47.550Z,12.59
2023-01-06T19:01:37.090Z,12.59
2023-01-06T19:04:19.137Z,12.59
2023-01-06T19:06:51.844Z,12.64
2023-01-06T19:09:24.574Z,12.65
2023-01-06T19:11:59.339Z,12.59
2023-01-06T19:14:29.944Z,12.43
2023-01-06T19:16:59.454Z,12.53
2023-01-06T19:19:40.043Z,12.52
2023-01-06T19:22:27.548Z,12.41
2023-01-06T19:25:03.716Z,12.66
2023-01-06T19:27:33.867Z,12.65
2023-01-06T19:30:13.975Z,12.54
2023-01-06T19:32:42.496Z,12.40
2023-01-06T19:35:25.394Z,12.56
2023-01-06T19:38:01.796Z,12.43
2023-01-06T19:40:32.331Z,12.56
2023-01-06T19:43:18.980Z,12.61
2023-01-06T19:45:46.909Z,12.44
2023-01-06T19:48:34.129Z,12.50
2023-01-06T19:51:23.054Z,12.33
2023-01-06T19:54:00.637Z,12.33
2023-01-06T19:56:33.927Z,12.45
2023-01-06T19:59:11.606Z,12.50
2023-01-06T20:01:39.708Z,12.55
2023-01-06T20:04:21.030Z,12.46
2023-01-06T20:06:49.505Z,12.38
2023-01-06T20:09:17.772Z,12.25
2023-01-06T20:11:45.681Z,12.41
2023-01-06T20:14:14.089Z,12.45
2023-01-06T20:16:42.148Z,12.32
2023-01-06T20:19:10.549Z,12.31
2023-01-06T20:21:40.429Z,12.37
2023-01-06T20:24:09.270Z,12.27
2023-01-06T20:26:37.647Z,12.11
2023-01-06T20:29:07.470Z,12.24
2023-01-06T20:31:36.267Z,12.27
2023-01-06T20:34:05.006Z,12.35
2023-01-06T20:36:33.795Z,12.03
2023-01-06T20:39:03.327Z,12.24
2023-01-06T20:41:31.507Z,12.27
2023-01-06T20:43:59.832Z,11.67
2023-01-06T20:46:27.906Z,11.94
2023-01-06T20:48:57.598Z,11.75
2023-01-06T20:51:25.544Z,11.58
2023-01-06T20:53:53.856Z,11.44
2023-01-06T20:56:21.886Z,11.89
2023-01-06T20:58:50.619Z,11.84
2023-01-06T21:01:18.717Z,11.97
2023-01-06T21:04:01.664Z,11.85
2023-01-06T21:06:29.995Z,11.90
2023-01-06T21:08:57.987Z,12.04
2023-01-06T21:11:26.296Z,11.95
2023-01-06T21:13:54.219Z,12.14
2023-01-06T21:16:22.930Z,11.96
2023-01-06T21:18:51.644Z,12.30
2023-01-06T21:21:21.496Z,12.24
2023-01-06T21:23:49.778Z,11.98
2023-01-06T21:26:19.294Z,11.95
2023-01-06T21:28:47.254Z,12.02
2023-01-06T21:31:15.710Z,11.81
2023-01-06T21:33:43.676Z,11.63
2023-01-06T21:36:12.185Z,11.34
2023-01-06T21:38:40.070Z,11.73
2023-01-06T21:41:27.032Z,11.87
2023-01-06T21:43:55.009Z,12.12
2023-01-06T21:46:23.311Z,12.16
2023-01-06T21:48:51.493Z,12.02
2023-01-06T21:51:19.996Z,11.86
2023-01-06T21:53:48.047Z,11.89
2023-01-06T21:56:16.317Z,11.58
2023-01-06T21:58:44.858Z,11.43
2023-01-06T22:01:14.571Z,11.91
2023-01-06T22:03:42.538Z,12.11
2023-01-06T22:06:11.251Z,12.02
2023-01-06T22:08:39.529Z,12.03
2023-01-06T22:11:09.047Z,12.01
2023-01-06T22:13:41.254Z,12.07
2023-01-06T22:16:10.417Z,12.12
2023-01-06T22:18:38.344Z,12.17
2023-01-06T22:21:07.437Z,12.17
2023-01-06T22:23:37.165Z,12.28
2023-01-06T22:26:06.302Z,12.39
2023-01-06T22:28:34.186Z,12.30
2023-01-06T22:31:03.827Z,12.53
2023-01-06T22:33:32.082Z,12.47
2023-01-06T22:36:00.644Z,12.26
2023-01-06T22:38:28.601Z,12.28
2023-01-06T22:40:57.061Z,12.48
2023-01-06T22:43:24.970Z,11.72
2023-01-06T22:45:55.234Z,11.90
2023-01-06T22:48:23.879Z,11.91
2023-01-06T22:51:05.875Z,12.13
2023-01-06T22:53:34.503Z,12.19
2023-01-06T22:56:07.910Z,12.29
2023-01-06T22:58:38.650Z,12.12
2023-01-06T23:01:08.904Z,12.34
2023-01-06T23:03:37.866Z,12.47
2023-01-06T23:06:09.224Z,12.47
2023-01-06T23:08:48.112Z,12.15
2023-01-06T23:11:27.712Z,12.30
2023-01-06T23:13:59.332Z,12.30
2023-01-06T23:16:30.422Z,12.38
2023-01-06T23:18:58.538Z,12.39
2023-01-06T23:21:30.199Z,12.23
2023-01-06T23:23:58.425Z,12.20
2023-01-06T23:26:31.730Z,12.13
2023-01-06T23:28:59.838Z,12.14
2023-01-06T23:31:32.237Z,12.26
2023-01-06T23:34:05.473Z,12.13
2023-01-06T23:36:35.255Z,12.06
2023-01-06T23:39:06.559Z,12.07
2023-01-06T23:41:37.015Z,12.13
2023-01-06T23:44:06.759Z,12.16
2023-01-06T23:46:39.348Z,12.10
2023-01-06T23:49:10.058Z,12.24
2023-01-06T23:51:39.788Z,12.13
2023-01-06T23:54:08.616Z,12.04
2023-01-06T23:56:37.877Z,12.28
2023-01-06T23:59:08.107Z,12.29
